Time;durP1;ratioP1;P1;durP2;ratioP2;P2;SDS_P1;SDS_P2;PMS_P1;PMS_P2;Temp;Humidity;BMP_temperature;BMP_pressure;BME280_temperature;BME280_humidity;BME280_pressure;Samples;Min_cycle;Max_cycle;Signal;HPM_P1;HPM_P2
2021/12/03 00:00:24;;;;;;;8.00;3.78;;;;;;;5.80;100.00;92208.00;5055347;28;20922;-87
2021/12/03 00:02:51;;;;;;;8.73;4.18;;;;;;;5.75;100.00;92195.88;5054828;28;20500;-88
2021/12/03 00:05:18;;;;;;;14.25;5.10;;;;;;;5.78;100.00;92195.44;5054810;28;20045;-90
2021/12/03 00:07:45;;;;;;;12.00;4.38;;;;;;;5.73;100.00;92196.06;5054701;28;20045;-85
2021/12/03 00:10:15;;;;;;;6.50;3.75;;;;;;;5.73;100.00;92187.63;5055777;28;20372;-86
2021/12/03 00:12:43;;;;;;;7.00;3.35;;;;;;;5.64;100.00;92179.47;5065142;28;20695;-88
2021/12/03 00:15:12;;;;;;;5.60;3.08;;;;;;;5.68;100.00;92185.72;5064789;28;20183;-88
2021/12/03 00:17:41;;;;;;;5.68;3.67;;;;;;;5.70;100.00;92199.00;5064349;28;20407;-88
2021/12/03 00:20:15;;;;;;;10.27;4.13;;;;;;;5.21;100.00;92122.28;5065057;28;20055;-88
2021/12/03 00:22:42;;;;;;;7.85;3.30;;;;;;;5.71;100.00;92202.34;5065186;28;20461;-88
2021/12/03 00:25:10;;;;;;;6.95;3.40;;;;;;;5.71;100.00;92210.00;5065693;28;20045;-88
2021/12/03 00:27:37;;;;;;;5.10;3.38;;;;;;;5.61;100.00;92183.19;5065236;28;20057;-87
2021/12/03 00:30:07;;;;;;;6.07;3.42;;;;;;;5.48;100.00;92168.75;5065263;28;20052;-88
2021/12/03 00:32:34;;;;;;;8.60;3.50;;;;;;;5.62;100.00;92176.34;5064771;28;20484;-88
2021/12/03 00:35:02;;;;;;;5.95;3.78;;;;;;;5.67;100.00;92173.16;5065579;28;20058;-88
2021/12/03 00:37:29;;;;;;;10.15;4.53;;;;;;;5.16;100.00;92112.72;5065390;28;20113;-88
2021/12/03 00:39:56;;;;;;;6.53;3.90;;;;;;;5.62;100.00;92177.09;5064398;28;20051;-87
2021/12/03 00:42:23;;;;;;;10.55;4.18;;;;;;;5.62;100.00;92169.47;5064672;28;20053;-87
2021/12/03 00:47:35;;;;;;;11.23;4.47;;;;;;;5.60;100.00;92171.44;5064785;28;20059;-87
2021/12/03 00:50:04;;;;;;;10.95;5.18;;;;;;;5.48;100.00;92147.63;5064256;28;20044;-87
2021/12/03 00:52:31;;;;;;;7.22;4.50;;;;;;;5.50;100.00;92147.41;5064275;28;20047;-87
2021/12/03 00:54:58;;;;;;;6.93;4.05;;;;;;;5.59;100.00;92141.88;5064644;28;20044;-87
2021/12/03 00:57:24;;;;;;;8.70;3.95;;;;;;;5.62;100.00;92148.31;5067858;28;21290;-86
2021/12/03 00:59:51;;;;;;;9.40;4.78;;;;;;;5.62;100.00;92153.41;5068614;28;20525;-88
2021/12/03 01:02:18;;;;;;;11.23;5.15;;;;;;;5.62;100.00;92153.41;5068309;28;20063;-88
2021/12/03 01:04:46;;;;;;;9.00;4.07;;;;;;;5.64;100.00;92141.25;5068587;28;20037;-89
2021/12/03 01:07:15;;;;;;;10.93;4.43;;;;;;;5.14;100.00;92073.16;5069026;28;20053;-90
2021/12/03 01:09:43;;;;;;;10.02;4.25;;;;;;;5.17;100.00;92086.28;5069084;28;20053;-89
2021/12/03 01:12:10;;;;;;;7.28;3.28;;;;;;;5.62;100.00;92135.56;5059913;28;20049;-88
2021/12/03 01:14:39;;;;;;;12.80;4.53;;;;;;;5.08;100.00;92050.09;5058078;28;20053;-88
2021/12/03 01:17:06;;;;;;;7.97;4.03;;;;;;;5.57;100.00;92135.41;5057868;28;20052;-85
2021/12/03 01:19:33;;;;;;;8.32;3.83;;;;;;;5.59;100.00;92133.44;5058324;28;20415;-85
2021/12/03 01:22:00;;;;;;;8.30;4.30;;;;;;;5.14;100.00;92060.44;5058017;28;20106;-86
2021/12/03 01:24:29;;;;;;;6.65;3.30;;;;;;;5.56;100.00;92108.38;5057643;28;20064;-86
2021/12/03 01:26:55;;;;;;;9.27;3.78;;;;;;;5.57;100.00;92112.50;5057887;28;20063;-86
2021/12/03 01:29:23;;;;;;;6.75;3.15;;;;;;;5.18;100.00;92056.47;5057754;28;20052;-88
2021/12/03 01:31:51;;;;;;;7.35;3.63;;;;;;;5.56;100.00;92111.69;5057805;28;20049;-86
2021/12/03 01:34:18;;;;;;;5.57;3.00;;;;;;;5.20;100.00;92047.66;5057870;28;20465;-86
2021/12/03 01:36:45;;;;;;;6.70;3.20;;;;;;;5.64;100.00;92094.63;5057632;28;20053;-86
2021/12/03 01:39:12;;;;;;;5.43;2.65;;;;;;;5.68;100.00;92088.91;5057543;28;20048;-87
2021/12/03 01:41:41;;;;;;;7.43;3.88;;;;;;;5.20;100.00;92018.88;5057416;28;20086;-87
2021/12/03 01:44:08;;;;;;;7.35;3.63;;;;;;;5.75;100.00;92104.91;5057758;28;20542;-88
2021/12/03 01:46:36;;;;;;;5.97;3.25;;;;;;;5.32;100.00;92034.28;5057192;28;20076;-88
2021/12/03 01:49:05;;;;;;;9.48;3.25;;;;;;;5.78;100.00;92101.16;5057593;28;20123;-86
2021/12/03 01:51:32;;;;;;;7.70;3.53;;;;;;;5.83;100.00;92105.66;5057624;28;20057;-87
2021/12/03 01:53:59;;;;;;;7.72;3.97;;;;;;;5.84;100.00;92104.66;5057138;28;20045;-86
2021/12/03 01:56:26;;;;;;;7.00;3.55;;;;;;;5.84;100.00;92102.88;5057698;28;20041;-88
2021/12/03 01:58:55;;;;;;;7.95;3.75;;;;;;;5.51;100.00;92039.44;5057476;28;20131;-88
2021/12/03 02:01:25;;;;;;;6.80;2.80;;;;;;;5.78;100.00;92072.38;5057410;28;20645;-88
2021/12/03 02:03:55;;;;;;;5.78;2.83;;;;;;;5.34;100.00;92006.84;5057372;28;20542;-89
2021/12/03 02:06:23;;;;;;;5.00;2.70;;;;;;;5.92;100.00;92086.56;5057265;28;20053;-88
2021/12/03 02:08:51;;;;;;;5.53;2.35;;;;;;;5.30;100.00;91988.66;5056442;28;20131;-88
2021/12/03 02:11:18;;;;;;;4.30;2.63;;;;;;;6.03;100.00;92087.69;5057153;28;20098;-88
2021/12/03 02:13:46;;;;;;;4.18;2.53;;;;;;;5.70;100.00;92028.31;5056841;28;20048;-87
2021/12/03 02:16:17;;;;;;;6.18;3.50;;;;;;;6.10;100.00;92085.84;5056822;28;20496;-88
2021/12/03 02:18:44;;;;;;;7.47;4.22;;;;;;;5.53;100.00;92000.03;5056945;28;20052;-88
2021/12/03 02:21:14;;;;;;;8.23;3.78;;;;;;;6.10;100.00;92069.75;5056693;28;20061;-88
2021/12/03 02:23:42;;;;;;;10.40;5.45;;;;;;;5.56;100.00;91986.88;5056679;28;20396;-88
2021/12/03 02:26:09;;;;;;;8.25;4.10;;;;;;;6.12;100.00;92063.47;5056454;28;20056;-88
2021/12/03 02:28:39;;;;;;;9.93;4.70;;;;;;;5.94;100.00;92035.38;5056756;28;20045;-88
2021/12/03 02:31:06;;;;;;;7.78;3.80;;;;;;;6.12;100.00;92063.47;5056994;28;20507;-89
2021/12/03 02:33:33;;;;;;;26.95;9.07;;;;;;;6.14;100.00;92066.59;5056477;28;20044;-88
2021/12/03 02:36:00;;;;;;;96.60;28.27;;;;;;;6.05;100.00;92047.44;5056938;28;20150;-86
2021/12/03 02:38:29;;;;;;;15.35;5.35;;;;;;;5.75;100.00;92014.97;5056243;28;20904;-87
2021/12/03 02:40:56;;;;;;;12.30;5.55;;;;;;;5.42;100.00;91967.63;5056758;28;21039;-87
2021/12/03 02:43:25;;;;;;;14.70;6.30;;;;;;;5.64;100.00;92001.13;5055810;28;20440;-86
2021/12/03 02:45:52;;;;;;;8.90;3.28;;;;;;;6.09;100.00;92063.91;5056386;28;20052;-87
2021/12/03 02:48:20;;;;;;;12.95;5.32;;;;;;;6.08;100.00;92051.34;5056605;28;20389;-87
2021/12/03 02:50:47;;;;;;;7.47;3.60;;;;;;;5.76;100.00;92011.41;5056553;28;20139;-86
2021/12/03 02:53:14;;;;;;;5.32;3.08;;;;;;;6.12;100.00;92047.41;5056261;28;20651;-85
2021/12/03 02:55:43;;;;;;;6.72;3.35;;;;;;;6.05;100.00;92028.81;5056060;28;20428;-86
2021/12/03 02:58:12;;;;;;;5.63;2.88;;;;;;;5.60;100.00;91965.09;5056027;28;20521;-86
2021/12/03 03:00:40;;;;;;;5.50;3.33;;;;;;;6.06;100.00;92040.59;5055910;28;20055;-84
2021/12/03 03:03:07;;;;;;;5.75;2.72;;;;;;;6.07;100.00;92044.69;5056284;28;20107;-85
2021/12/03 03:05:34;;;;;;;6.10;3.10;;;;;;;6.10;100.00;92055.25;5056223;28;20447;-85
2021/12/03 03:08:02;;;;;;;5.60;3.85;;;;;;;6.14;100.00;92050.50;5055670;28;20064;-84
2021/12/03 03:10:31;;;;;;;7.65;3.05;;;;;;;6.13;100.00;92056.59;5055838;28;20408;-84
2021/12/03 03:13:00;;;;;;;7.22;3.28;;;;;;;6.10;100.00;92049.34;5055781;28;20055;-85
2021/12/03 03:15:28;;;;;;;5.38;2.88;;;;;;;5.62;100.00;91970.75;5055779;28;20040;-85
2021/12/03 03:17:55;;;;;;;4.22;2.53;;;;;;;6.18;100.00;92033.00;5056063;28;20053;-85
2021/12/03 03:20:22;;;;;;;5.88;3.55;;;;;;;6.20;100.00;92043.81;5055253;28;20103;-85
2021/12/03 03:22:50;;;;;;;7.22;2.70;;;;;;;6.09;100.00;92028.22;5056076;28;20048;-84
2021/12/03 03:25:19;;;;;;;6.70;3.47;;;;;;;6.18;100.00;92043.22;5055862;28;20053;-84
2021/12/03 03:27:47;;;;;;;5.05;2.53;;;;;;;6.14;100.00;92048.75;5056037;28;20052;-85
2021/12/03 03:30:19;;;;;;;5.00;2.50;;;;;;;6.13;100.00;92043.84;5055279;28;20496;-85
2021/12/03 03:32:46;;;;;;;6.72;3.15;;;;;;;6.17;100.00;92047.56;5055595;28;20051;-84
2021/12/03 03:35:14;;;;;;;6.18;3.10;;;;;;;6.13;100.00;92051.50;5055643;28;20045;-88
2021/12/03 03:37:41;;;;;;;7.70;4.05;;;;;;;6.12;100.00;92055.81;5055528;28;20057;-87
2021/12/03 03:40:10;;;;;;;9.52;4.68;;;;;;;6.12;100.00;92047.41;5055834;28;20063;-86
2021/12/03 03:42:37;;;;;;;8.85;4.40;;;;;;;6.06;100.00;92027.84;5055475;28;20055;-87
2021/12/03 03:45:09;;;;;;;9.35;4.72;;;;;;;6.14;100.00;92045.41;5055184;28;20037;-85
2021/12/03 03:47:37;;;;;;;8.43;4.38;;;;;;;6.09;100.00;92040.94;5055284;28;20048;-86
2021/12/03 03:50:05;;;;;;;7.78;3.38;;;;;;;6.00;100.00;92031.97;5055201;28;20128;-86
2021/12/03 03:52:33;;;;;;;10.65;3.03;;;;;;;5.72;100.00;92010.28;5055392;28;20053;-86
2021/12/03 03:55:00;;;;;;;7.03;3.50;;;;;;;5.74;100.00;92013.41;5054945;28;20044;-88
2021/12/03 03:57:27;;;;;;;7.57;3.47;;;;;;;6.10;100.00;92055.25;5055537;28;20419;-86
2021/12/03 03:59:54;;;;;;;6.65;3.13;;;;;;;6.04;100.00;92048.44;5053271;28;20385;-86
2021/12/03 04:02:21;;;;;;;7.82;2.78;;;;;;;6.08;100.00;92056.44;5048514;28;20128;-86
2021/12/03 04:04:50;;;;;;;5.82;2.70;;;;;;;6.09;100.00;92058.81;5049140;28;20045;-88
2021/12/03 04:07:17;;;;;;;8.95;3.53;;;;;;;6.09;100.00;92055.47;5049503;28;20049;-89
2021/12/03 04:09:44;;;;;;;6.00;3.47;;;;;;;6.07;100.00;92044.69;5049062;28;20048;-87
2021/12/03 04:12:11;;;;;;;7.38;4.00;;;;;;;6.08;100.00;92041.94;5066724;28;20388;-87
2021/12/03 04:14:38;;;;;;;10.63;4.05;;;;;;;5.50;100.00;91964.03;5069045;28;20059;-88
2021/12/03 04:17:05;;;;;;;11.43;4.00;;;;;;;6.17;100.00;92065.41;5068920;28;20047;-88
2021/12/03 04:19:32;;;;;;;9.23;4.10;;;;;;;6.00;100.00;92031.97;5069971;28;20044;-88
2021/12/03 04:22:01;;;;;;;7.80;3.70;;;;;;;6.18;100.00;92061.84;5069860;28;20048;-88
2021/12/03 04:24:28;;;;;;;9.35;3.50;;;;;;;6.22;100.00;92057.09;5069540;28;20052;-88
2021/12/03 04:26:55;;;;;;;6.65;2.63;;;;;;;5.89;100.00;91997.78;5069086;28;20048;-87
2021/12/03 04:29:22;;;;;;;7.30;3.25;;;;;;;6.12;100.00;92044.84;5068925;28;20488;-88
2021/12/03 04:31:48;;;;;;;9.10;5.22;;;;;;;5.80;100.00;91999.03;5069292;28;20059;-87
2021/12/03 04:34:15;;;;;;;6.82;4.03;;;;;;;6.24;100.00;92062.75;5069879;28;20048;-88
2021/12/03 04:36:42;;;;;;;5.55;3.35;;;;;;;5.81;100.00;92001.38;5068674;28;20044;-87
2021/12/03 04:39:12;;;;;;;10.25;4.20;;;;;;;6.12;100.00;92055.81;5069363;28;20411;-86
2021/12/03 04:41:38;;;;;;;8.43;4.72;;;;;;;6.06;100.00;92051.56;5069099;28;20049;-87
2021/12/03 04:44:06;;;;;;;7.72;3.70;;;;;;;5.56;100.00;91979.22;5069456;28;20102;-85
2021/12/03 04:46:33;;;;;;;10.23;5.13;;;;;;;6.24;100.00;92071.22;5068685;28;20522;-87
2021/12/03 04:49:00;;;;;;;8.73;3.67;;;;;;;5.55;100.00;91976.91;5069079;28;20048;-88
2021/12/03 04:51:27;;;;;;;9.38;3.28;;;;;;;6.25;100.00;92066.91;5068845;28;20051;-83
2021/12/03 04:53:54;;;;;;;5.43;2.90;;;;;;;6.18;100.00;92054.19;5069219;28;20045;-86
2021/12/03 04:56:22;;;;;;;6.95;2.92;;;;;;;6.00;100.00;92027.66;5069018;28;20044;-85
2021/12/03 04:58:49;;;;;;;7.30;2.60;;;;;;;6.06;100.00;92035.50;5068596;28;20052;-85
2021/12/03 05:01:16;;;;;;;8.00;3.55;;;;;;;6.26;100.00;92065.91;5068712;28;20063;-85
2021/12/03 05:03:42;;;;;;;6.50;3.05;;;;;;;6.24;100.00;92066.09;5068525;28;20048;-86
2021/12/03 05:06:14;;;;;;;5.95;3.45;;;;;;;6.28;100.00;92076.66;5068556;28;20056;-84
2021/12/03 05:08:41;;;;;;;6.53;3.30;;;;;;;6.32;100.00;92092.31;5066086;28;20060;-83
2021/12/03 05:11:08;;;;;;;6.25;2.65;;;;;;;6.21;100.00;92078.50;5067150;28;20439;-84
2021/12/03 05:13:38;;;;;;;6.30;3.53;;;;;;;6.37;100.00;92103.47;5068047;28;20113;-85
2021/12/03 05:16:06;;;;;;;5.47;3.97;;;;;;;6.37;100.00;92106.00;5068450;28;20491;-83
2021/12/03 05:18:33;;;;;;;9.43;3.33;;;;;;;6.41;100.00;92108.91;5068708;28;20053;-84
2021/12/03 05:21:03;;;;;;;7.45;4.03;;;;;;;6.45;100.00;92101.63;5068333;28;20048;-85
2021/12/03 05:23:31;;;;;;;7.82;3.65;;;;;;;6.44;100.00;92103.41;5068602;28;20413;-85
2021/12/03 05:25:58;;;;;;;5.65;3.05;;;;;;;6.43;100.00;92103.59;5068546;28;20121;-85
2021/12/03 05:28:25;;;;;;;6.45;2.85;;;;;;;6.56;100.00;92118.78;5068191;28;20055;-85
2021/12/03 05:30:54;;;;;;;12.35;5.95;;;;;;;6.58;100.00;92116.81;5068786;28;20110;-86
2021/12/03 05:33:21;;;;;;;12.75;6.03;;;;;;;6.27;100.00;92065.69;5068380;28;20048;-87
2021/12/03 05:35:49;;;;;;;11.73;5.63;;;;;;;6.40;100.00;92077.50;5068513;28;20045;-86
2021/12/03 05:38:16;;;;;;;11.18;4.70;;;;;;;6.29;100.00;92068.00;5068402;28;20392;-87
2021/12/03 05:40:43;;;;;;;7.55;3.58;;;;;;;6.58;100.00;92093.06;5068287;28;20541;-85
2021/12/03 05:43:10;;;;;;;5.10;2.95;;;;;;;6.03;100.00;92030.81;5069647;28;20048;-91
2021/12/03 05:45:38;;;;;;;8.63;3.47;;;;;;;6.78;100.00;92124.25;5071757;28;20499;-89
2021/12/03 05:48:06;;;;;;;13.25;6.10;;;;;;;6.41;100.00;92066.34;5071287;28;20500;-89
2021/12/03 05:50:34;;;;;;;13.20;6.00;;;;;;;6.82;100.00;92143.22;5071786;28;20048;-88
2021/12/03 05:53:01;;;;;;;7.13;4.10;;;;;;;6.76;100.00;92128.78;5071542;28;20518;-86
2021/12/03 05:55:28;;;;;;;5.88;3.63;;;;;;;6.84;100.00;92145.59;5071548;28;20050;-86
2021/12/03 05:57:56;;;;;;;7.90;2.97;;;;;;;6.95;100.00;92146.66;5071353;28;20059;-90
2021/12/03 06:00:26;;;;;;;6.65;3.50;;;;;;;6.97;100.00;92147.22;5071490;28;20052;-90
2021/12/03 06:02:54;;;;;;;6.65;3.10;;;;;;;7.02;100.00;92149.91;5071751;28;20051;-86
2021/12/03 06:05:23;;;;;;;11.30;3.53;;;;;;;7.06;100.00;92160.47;5071385;28;20044;-85
2021/12/03 06:07:51;;;;;;;7.80;3.03;;;;;;;6.92;100.00;92135.09;5071262;28;20055;-87
2021/12/03 06:10:18;;;;;;;7.75;3.28;;;;;;;7.00;100.00;92149.34;5071280;28;20049;-86
2021/12/03 06:12:46;;;;;;;6.57;3.50;;;;;;;7.12;100.00;92149.41;5071326;28;20071;-87
2021/12/03 06:15:13;;;;;;;7.38;3.17;;;;;;;7.00;100.00;92130.69;5071211;28;20416;-90
2021/12/03 06:17:40;;;;;;;7.32;3.03;;;;;;;7.07;100.00;92124.50;5071057;28;20060;-88
2021/12/03 06:20:09;;;;;;;5.35;2.47;;;;;;;7.21;100.00;92140.47;5070978;28;20522;-88
2021/12/03 06:22:38;;;;;;;7.57;2.90;;;;;;;6.68;100.00;92055.06;5071619;28;20049;-90
2021/12/03 06:25:08;;;;;;;8.05;2.92;;;;;;;7.31;100.00;92139.19;5071585;28;20122;-87
2021/12/03 06:27:36;;;;;;;7.93;3.10;;;;;;;7.32;100.00;92138.19;5070696;28;20048;-86
2021/12/03 06:30:07;;;;;;;5.22;2.60;;;;;;;7.27;100.00;92130.38;5070938;28;20049;-87
2021/12/03 06:32:34;;;;;;;5.43;2.95;;;;;;;7.39;100.00;92149.09;5071202;28;20412;-87
2021/12/03 06:35:01;;;;;;;6.82;2.70;;;;;;;7.43;100.00;92159.66;5070748;28;20048;-89
2021/12/03 06:37:28;;;;;;;6.32;1.92;;;;;;;7.28;100.00;92137.84;5071012;28;20045;-90
2021/12/03 06:39:56;;;;;;;6.10;2.10;;;;;;;7.39;100.00;92146.53;5070669;28;20515;-87
2021/12/03 06:42:23;;;;;;;5.70;2.30;;;;;;;7.49;100.00;92140.88;5070826;28;20052;-86
2021/12/03 06:44:50;;;;;;;6.85;2.65;;;;;;;7.63;100.00;92144.06;5070804;28;20095;-88
2021/12/03 06:47:16;;;;;;;6.10;2.58;;;;;;;7.68;100.00;92136.50;5070775;28;20399;-86
2021/12/03 06:49:43;;;;;;;9.60;2.50;;;;;;;7.90;100.00;92187.16;5070329;28;20055;-86
2021/12/03 06:52:14;;;;;;;4.57;2.67;;;;;;;7.98;100.00;92178.38;5070317;28;20052;-87
2021/12/03 06:54:41;;;;;;;5.10;2.97;;;;;;;8.05;100.00;92183.41;5070291;28;20056;-85
2021/12/03 06:57:11;;;;;;;7.53;3.10;;;;;;;7.75;100.00;92128.75;5070368;28;20048;-88
2021/12/03 06:59:38;;;;;;;8.98;2.67;;;;;;;8.08;100.00;92170.97;5070438;28;20052;-85
2021/12/03 07:02:05;;;;;;;9.15;2.78;;;;;;;8.09;100.00;92166.63;5070335;28;20061;-86
2021/12/03 07:04:32;;;;;;;5.97;3.13;;;;;;;8.23;100.00;92179.97;5070297;28;20052;-86
2021/12/03 07:06:59;;;;;;;10.10;4.70;;;;;;;8.27;100.00;92170.88;5070082;28;20054;-85
2021/12/03 07:09:26;;;;;;;15.35;11.52;;;;;;;8.16;100.00;92160.41;5070286;28;20052;-86
2021/12/03 07:11:52;;;;;;;10.20;8.38;;;;;;;8.28;100.00;92168.09;5069960;28;20053;-85
2021/12/03 07:14:21;;;;;;;7.00;4.68;;;;;;;8.34;100.00;92175.91;5069914;28;20061;-85
2021/12/03 07:16:48;;;;;;;6.45;3.53;;;;;;;8.24;100.00;92161.84;5070285;28;20434;-85
2021/12/03 07:19:14;;;;;;;10.95;5.05;;;;;;;8.41;100.00;92181.69;5069966;28;20420;-87
2021/12/03 07:21:41;;;;;;;19.05;8.05;;;;;;;8.43;100.00;92172.78;5069917;28;20053;-85
2021/12/03 07:24:08;;;;;;;7.20;5.45;;;;;;;8.28;100.00;92141.72;5069777;28;20131;-84
2021/12/03 07:26:35;;;;;;;8.70;5.50;;;;;;;8.24;100.00;92120.94;5069770;28;20040;-86
2021/12/03 07:29:02;;;;;;;16.58;6.63;;;;;;;8.55;100.00;92156.69;5069568;28;20056;-86
2021/12/03 07:31:31;;;;;;;10.57;4.43;;;;;;;8.64;100.00;92154.56;5069976;28;20051;-85
2021/12/03 07:33:58;;;;;;;7.88;3.08;;;;;;;8.64;100.00;92157.91;5070192;28;20048;-87
2021/12/03 07:36:25;;;;;;;6.07;3.92;;;;;;;8.54;100.00;92129.53;5070033;28;20056;-85
2021/12/03 07:38:52;;;;;;;5.32;3.15;;;;;;;8.69;100.00;92144.44;5070092;28;20048;-84
2021/12/03 07:41:18;;;;;;;5.93;3.25;;;;;;;8.84;100.00;92156.75;5070080;28;20048;-87
2021/12/03 07:43:46;;;;;;;13.25;8.18;;;;;;;8.88;100.00;92149.44;5070071;28;20063;-86
2021/12/03 07:46:15;;;;;;;7.32;3.47;;;;;;;8.93;100.00;92162.31;5070073;28;20040;-86
2021/12/03 07:48:48;;;;;;;8.75;4.53;;;;;;;8.79;100.00;92138.72;5069313;28;20171;-86
2021/12/03 07:51:16;;;;;;;6.55;3.30;;;;;;;8.84;100.00;92150.88;5069667;28;20154;-87
2021/12/03 07:53:43;;;;;;;5.75;3.17;;;;;;;8.71;100.00;92126.28;5068904;28;20044;-86
2021/12/03 07:56:12;;;;;;;8.02;3.63;;;;;;;8.78;100.00;92153.34;5069682;28;20052;-87
2021/12/03 07:58:39;;;;;;;6.10;2.92;;;;;;;8.99;100.00;92179.38;5069277;28;20074;-86
2021/12/03 08:01:06;;;;;;;4.72;2.35;;;;;;;8.65;100.00;92131.31;5053070;28;20614;-86
2021/12/03 08:03:33;;;;;;;14.90;6.72;;;;;;;8.57;100.00;92111.19;5047636;28;20560;-87
2021/12/03 08:08:46;;;;;;;11.80;4.90;;;;;;;9.00;100.00;92173.25;5048844;28;20102;-85
2021/12/03 08:11:12;;;;;;;12.10;5.70;;;;;;;8.92;100.00;92164.13;5058287;28;20059;-86
2021/12/03 08:13:39;;;;;;;11.88;4.97;;;;;;;8.59;100.00;92123.72;5069053;28;20056;-87
2021/12/03 08:16:09;;;;;;;14.38;6.00;;;;;;;9.04;100.00;92184.59;5068902;28;20054;-87
2021/12/03 08:18:36;;;;;;;19.25;7.70;;;;;;;9.06;100.00;92176.66;5069269;28;20409;-85
2021/12/03 08:21:05;;;;;;;15.95;5.68;;;;;;;9.07;100.00;92191.81;5068972;28;21087;-84
2021/12/03 08:23:32;;;;;;;19.48;7.53;;;;;;;9.11;100.00;92202.38;5069008;28;20052;-86
2021/12/03 08:25:59;;;;;;;24.65;9.10;;;;;;;8.94;100.00;92167.22;5068803;28;20144;-86
2021/12/03 08:28:26;;;;;;;24.27;8.75;;;;;;;8.92;100.00;92151.31;5069032;28;20389;-85
2021/12/03 08:30:53;;;;;;;27.55;10.15;;;;;;;8.72;100.00;92136.31;5069168;28;20097;-87
2021/12/03 08:33:21;;;;;;;27.20;8.90;;;;;;;9.06;100.00;92181.78;5069055;28;20515;-85
2021/12/03 08:35:47;;;;;;;14.90;7.05;;;;;;;9.20;100.00;92184.88;5068808;28;20496;-84
2021/12/03 08:38:16;;;;;;;17.48;7.85;;;;;;;9.13;100.00;92174.00;5069001;28;20393;-86
2021/12/03 08:40:43;;;;;;;15.07;5.97;;;;;;;9.34;100.00;92193.88;5068660;28;20055;-85
2021/12/03 08:43:09;;;;;;;12.32;5.63;;;;;;;9.08;100.00;92144.69;5068791;28;20044;-87
2021/12/03 08:45:38;;;;;;;10.32;5.63;;;;;;;9.25;100.00;92182.41;5068807;28;20060;-86
2021/12/03 08:48:06;;;;;;;15.68;5.50;;;;;;;9.30;100.00;92181.75;5068704;28;20450;-87
2021/12/03 08:50:36;;;;;;;17.33;6.28;;;;;;;9.45;100.00;92206.91;5068803;28;20052;-87
2021/12/03 08:53:17;;;;;;;15.68;5.45;;;;;;;9.26;100.00;92178.09;5068792;28;20053;-87
2021/12/03 08:55:45;;;;;;;18.50;7.00;;;;;;;9.42;100.00;92203.00;5068506;28;20056;-86
2021/12/03 08:58:16;;;;;;;11.70;5.55;;;;;;;9.07;100.00;92173.09;5068580;28;20094;-87
2021/12/03 09:00:44;;;;;;;10.18;4.35;;;;;;;9.20;100.00;92195.94;5068495;28;20507;-86
2021/12/03 09:03:12;;;;;;;14.40;4.40;;;;;;;9.07;100.00;92191.81;5068863;28;20094;-87
2021/12/03 09:05:39;;;;;;;9.90;4.50;;;;;;;9.51;100.00;92243.66;5068220;28;20049;-86
2021/12/03 09:08:06;;;;;;;7.70;3.30;;;;;;;9.55;100.00;92250.69;5068566;28;20135;-85
2021/12/03 09:10:33;;;;;;;8.73;2.88;;;;;;;9.56;100.00;92251.44;5068057;28;20511;-87
2021/12/03 09:13:02;;;;;;;6.78;3.30;;;;;;;9.58;100.00;92247.66;5068562;28;20048;-87
2021/12/03 09:15:34;;;;;;;8.00;3.63;;;;;;;9.20;100.00;92170.31;5068481;28;20056;-86
2021/12/03 09:18:23;;;;;;;7.78;3.95;;;;;;;9.27;100.00;92179.63;5071415;28;20130;-90
2021/12/03 09:20:58;;;;;;;9.60;4.85;;;;;;;9.58;100.00;92213.56;5072159;28;20135;-86
2021/12/03 09:23:33;;;;;;;9.75;4.10;;;;;;;9.58;100.00;92196.38;5072240;28;20056;-89
2021/12/03 09:26:06;;;;;;;9.45;5.07;;;;;;;9.61;100.00;92215.66;5072141;28;20080;-87
2021/12/03 09:28:36;;;;;;;11.98;4.80;;;;;;;9.69;100.00;92215.31;5072014;28;20063;-86
2021/12/03 09:31:05;;;;;;;16.60;8.48;;;;;;;9.79;100.00;92224.19;5072007;28;20160;-86
2021/12/03 09:33:34;;;;;;;11.85;4.88;;;;;;;9.76;100.00;92235.66;5071883;28;20098;-86
2021/12/03 09:36:03;;;;;;;8.77;4.15;;;;;;;9.72;100.00;92225.09;5071842;28;20048;-86
2021/12/03 09:38:32;;;;;;;21.63;9.40;;;;;;;9.73;100.00;92224.06;5071869;28;20040;-86
2021/12/03 09:41:05;;;;;;;23.40;11.50;;;;;;;9.79;100.00;92212.13;5071893;28;20492;-86
2021/12/03 09:43:35;;;;;;;42.03;23.40;;;;;;;9.94;100.00;92226.22;5072188;28;20040;-86
2021/12/03 09:46:08;;;;;;;13.20;5.63;;;;;;;9.83;100.00;92222.72;5071787;28;20167;-86
2021/12/03 09:48:46;;;;;;;10.98;4.55;;;;;;;9.91;100.00;92219.00;5072091;28;20071;-84
2021/12/03 09:51:13;;;;;;;11.73;3.55;;;;;;;9.82;100.00;92221.94;5071954;28;20080;-86
2021/12/03 09:54:11;;;;;;;10.98;4.05;;;;;;;9.79;100.00;92217.28;5071651;28;20055;-85
2021/12/03 09:56:38;;;;;;;14.80;5.05;;;;;;;9.91;100.00;92209.53;5071870;28;20067;-86
2021/12/03 10:01:58;;;;;;;12.20;4.10;;;;;;;9.80;100.00;92194.94;5050291;28;20048;-86
2021/12/03 10:04:43;;;;;;;13.65;4.20;;;;;;;9.98;100.00;92215.28;5071365;28;20086;-86
2021/12/03 10:12:45;;;;;;;12.00;4.40;;;;;;;10.03;100.00;92197.44;5071416;28;20048;-85
2021/12/03 10:15:18;;;;;;;8.13;3.33;;;;;;;10.24;100.00;92228.53;5071550;28;20504;-85
2021/12/03 10:17:52;;;;;;;11.82;3.97;;;;;;;10.22;100.00;92222.88;5071101;28;20048;-84
2021/12/03 10:20:27;;;;;;;11.70;3.92;;;;;;;10.24;100.00;92214.94;5071284;28;20053;-84
2021/12/03 10:34:48;;;;;;;9.00;2.47;;;;;;;10.35;100.00;92173.03;5071243;28;20127;-85
2021/12/03 10:40:04;;;;;;;12.07;3.65;;;;;;;10.50;99.46;92180.22;5068753;28;20048;-86
2021/12/03 10:42:44;;;;;;;;;;;;;;;10.71;99.31;92206.19;5071635;28;20044;-83
2021/12/03 10:45:31;;;;;;;17.80;7.93;;;;;;;10.69;99.64;92209.00;5071189;28;19931;-84
2021/12/03 10:48:18;;;;;;;25.33;10.85;;;;;;;10.58;100.00;92178.25;5067123;28;20401;-84
2021/12/03 10:53:39;;;;;;;32.83;12.18;;;;;;;10.74;99.59;92215.22;5067034;28;20070;-84
2021/12/03 11:16:16;;;;;;;;;;;;;;;11.01;96.47;92212.75;5027935;28;20058;-84
2021/12/03 11:19:20;;;;;;;19.92;8.07;;;;;;;10.89;95.76;92196.66;5068317;28;19972;-83
2021/12/03 11:30:46;;;;;;;16.15;6.82;;;;;;;10.88;94.62;92166.84;5067324;28;20411;-84
2021/12/03 11:36:39;;;;;;;11.57;4.97;;;;;;;10.97;94.77;92185.97;5067882;28;20064;-83
2021/12/03 12:25:28;;;;;;;10.25;2.90;;;;;;;11.10;92.45;92184.84;4989219;28;20110;-84
2021/12/03 13:09:01;;;;;;;8.60;2.10;;;;;;;10.83;95.61;92170.13;5089263;28;20048;-82
2021/12/03 13:57:14;;;;;;;11.23;3.55;;;;;;;10.44;94.20;92191.41;5102151;28;20454;-86
2021/12/03 14:36:39;;;;;;;15.85;4.68;;;;;;;10.32;98.13;92265.13;5044469;28;20136;-83
2021/12/03 14:45:01;;;;;;;14.75;4.25;;;;;;;10.08;100.00;92235.22;5096141;28;20071;-84
2021/12/03 14:47:49;;;;;;;7.10;2.85;;;;;;;9.88;100.00;92226.16;5096882;28;20044;-83
2021/12/03 14:50:42;;;;;;;9.40;2.50;;;;;;;10.08;100.00;92255.75;5097156;28;20040;-84
2021/12/03 14:53:17;;;;;;;7.55;2.65;;;;;;;10.07;100.00;92269.59;5097096;28;20048;-83
2021/12/03 14:55:50;;;;;;;10.73;3.08;;;;;;;10.05;100.00;92274.19;5097214;28;20164;-83
2021/12/03 14:58:19;;;;;;;9.13;3.63;;;;;;;10.08;100.00;92281.41;5096953;28;20517;-83
2021/12/03 15:00:54;;;;;;;7.85;2.63;;;;;;;10.00;100.00;92277.41;5097586;28;20043;-83
2021/12/03 15:03:30;;;;;;;9.70;2.45;;;;;;;10.03;100.00;92289.00;5096352;28;20066;-84
2021/12/03 15:06:06;;;;;;;6.20;2.97;;;;;;;10.06;100.00;92286.00;5097108;28;20047;-83
2021/12/03 15:08:37;;;;;;;8.75;3.67;;;;;;;10.03;100.00;92276.97;5095823;28;20048;-82
2021/12/03 15:11:42;;;;;;;62.83;23.60;;;;;;;9.97;100.00;92277.88;5096556;28;20059;-83
2021/12/03 15:23:07;;;;;;;37.95;14.57;;;;;;;9.93;100.00;92278.56;5093002;28;20052;-84
2021/12/03 15:25:43;;;;;;;11.90;6.30;;;;;;;9.90;100.00;92272.09;5096295;28;20051;-84
2021/12/03 15:31:38;;;;;;;12.63;8.88;;;;;;;9.86;100.00;92276.13;5070360;27;1317802;-81
2021/12/03 15:34:10;;;;;;;35.80;20.67;;;;;;;9.91;100.00;92281.38;5093391;28;20426;-81
2021/12/03 15:36:54;;;;;;;56.97;32.92;;;;;;;9.93;100.00;92286.25;5093337;28;20036;-83
2021/12/03 15:39:41;;;;;;;33.90;19.45;;;;;;;9.94;100.00;92290.38;5093019;28;20037;-83
2021/12/03 16:04:13;;;;;;;12.73;8.23;;;;;;;9.85;100.00;92289.94;5091957;28;20063;-83
2021/12/03 16:06:47;;;;;;;15.18;7.80;;;;;;;9.86;100.00;92294.09;5091875;28;20040;-83
2021/12/03 16:09:25;;;;;;;19.33;8.38;;;;;;;9.86;100.00;92305.13;5091843;28;20049;-83
2021/12/03 16:11:56;;;;;;;29.90;11.00;;;;;;;9.84;100.00;92306.34;5091778;28;20178;-83